Flight Track Log - Related Links

Times and Time Zones

All times are in EST time to prevent confusion due to time zone crossing. See the FSR411 flight status page for this flight to view local times or setup timezone preferences in your user account.

Time Position Orientation Groundspeed Altitude Reporting Facility
EST Latitude Longitude Course Direction KTS MPH feet Rate Location/Type
Tue 04:04:49 PM 41.8333 -87.7333 90° East 251 289 2,900  Level Chicago TRACON
Tue 04:05:47 PM 41.8186 -87.6458 103° East 263 303 4,700 2,550 Climbing Chicago Center
Tue 04:06:49 PM 41.8094 -87.5400 97° East 281 323 8,000 3,339 Climbing Chicago Center
Tue 04:07:51 PM 41.7981 -87.4122 97° East 319 367 11,600 3,581 Climbing Chicago Center
Tue 04:08:53 PM 41.7850 -87.2789 97° East 356 410 15,400 3,408 Climbing Chicago Center
Tue 04:09:56 PM 41.7675 -87.1222 98° East 421 484 18,700 3,024 Climbing Chicago Center
Tue 04:10:00 PM 41.7500 -86.8219 90° East  Level FlightAware Approximate
Tue 04:10:58 PM 41.7625 -86.9511 92° East 460 529 21,700  Level Chicago Center
Tue 04:12:00 PM 41.8106 -86.7806 69° East 485 558 24,200 2,419 Climbing Chicago Center
Tue 04:13:02 PM 41.8594 -86.5997 70° East 511 588 26,700 2,468 Climbing Chicago Center
Tue 04:14:04 PM 41.9117 -86.4142 69° East 527 606 29,300 2,710 Climbing Chicago Center
Tue 04:15:06 PM 41.9700 -86.1869 71° East 537 618 32,300 2,177 Climbing Chicago Center
Tue 04:16:08 PM 41.9842 -85.9772 85° East 562 647 33,800 1,645 Climbing Chicago Center
Tue 04:17:10 PM 41.9958 -85.7681 86° East 560 644 35,700 1,887 Climbing Chicago Center
Tue 04:18:12 PM 42.0067 -85.5653 86° East 547 629 37,700 1,824 Climbing Chicago Center
Tue 04:19:15 PM 42.0189 -85.3536 85° East 526 605 39,500 1,355 Climbing Chicago Center
Tue 04:20:16 PM 42.0292 -85.1669 86° East 510 587 40,500 726 Climbing Chicago Center
Tue 04:21:19 PM 42.0383 -84.9797 86° East 506 582 41,000 240 Climbing Chicago Center
Tue 04:22:21 PM 42.0481 -84.7886 86° East 514 592 41,000  Level Chicago Center
Tue 04:23:23 PM 42.0575 -84.5908 86° East 527 606 41,000  Level Chicago Center
Tue 04:24:25 PM 42.0694 -84.3503 86° East 538 619 41,000  Level Chicago Center
Tue 04:25:16 PM 42.0758 -84.2111 86° East 539 620 41,000  Level Cleveland Center
Tue 04:26:18 PM 42.0864 -83.9706 87° East 541 623 41,000  Level Cleveland Center
Tue 04:27:20 PM 42.0947 -83.7689 87° East 541 623 41,000  Level Cleveland Center
Tue 04:28:22 PM 42.1025 -83.5703 87° East 542 624 41,000  Level Cleveland Center
Tue 04:29:25 PM 42.1103 -83.3381 87° East 542 624 41,000  Level Cleveland Center
Tue 04:30:27 PM 42.1181 -83.1350 87° East 542 624 41,000  Level Cleveland Center
Tue 04:31:29 PM 42.1247 -82.9347 87° East 542 624 41,000  Level Cleveland Center
Tue 04:32:31 PM 42.1308 -82.7333 88° East 542 624 41,000  Level Cleveland Center
Tue 04:33:33 PM 42.1381 -82.5311 87° East 542 624 41,000  Level Cleveland Center
Tue 04:34:35 PM 42.1425 -82.3308 88° East 541 623 41,000  Level Cleveland Center
Tue 04:35:37 PM 42.1486 -82.1094 88° East 539 620 41,000  Level Cleveland Center
Tue 04:36:39 PM 42.1547 -81.9064 88° East 539 620 41,000  Level Cleveland Center
Tue 04:37:41 PM 42.1597 -81.6672 88° East 536 617 41,000  Level Cleveland Center
Tue 04:38:44 PM 42.1644 -81.4639 88° East 537 618 41,000  Level Cleveland Center
Tue 04:39:46 PM 42.1681 -81.2578 89° East 538 619 41,000  Level Cleveland Center
Tue 04:40:48 PM 42.1714 -81.0547 89° East 539 620 41,000  Level Cleveland Center
Tue 04:41:50 PM 42.1744 -80.8508 89° East 539 620 41,000  Level Cleveland Center
Tue 04:42:52 PM 42.1778 -80.6464 89° East 538 619 41,000  Level Cleveland Center
Tue 04:43:54 PM 42.1811 -80.4453 89° East 537 618 41,000  Level Cleveland Center
Tue 04:44:56 PM 42.1842 -80.2425 89° East 536 617 41,000  Level Cleveland Center
Tue 04:45:58 PM 42.1861 -80.0067 89° East 535 616 41,000  Level Cleveland Center
Tue 04:47:00 PM 42.1867 -79.8228 90° East 536 617 41,000  Level Cleveland Center
Tue 04:48:03 PM 42.1878 -79.6222 90° East 537 618 41,000  Level Cleveland Center
Tue 04:49:05 PM 42.1875 -79.3803 90° East 539 620 41,000  Level Cleveland Center
Tue 04:50:07 PM 42.1886 -79.1800 90° East 538 619 41,000  Level Cleveland Center
Tue 04:51:09 PM 42.1550 -78.9825 103° East 540 621 41,000  Level Cleveland Center
Tue 04:52:11 PM 42.1069 -78.7967 109° East 532 612 41,000  Level Cleveland Center
Tue 04:53:13 PM 42.0594 -78.6064 109° East 532 612 41,000 -435 Level Cleveland Center
Tue 04:54:15 PM 42.0114 -78.4181 109° East 533 613 40,100 -1,403 Descending Cleveland Center
Tue 04:55:17 PM 41.9533 -78.1950 109° East 531 611 38,100 -1,776 Descending Cleveland Center
Tue 04:56:20 PM 41.9078 -78.0167 109° East 529 609 36,400 -1,706 Descending Cleveland Center
Tue 04:57:06 PM 41.8658 -77.8619 110° East 549 632 35,000 -1,755 Descending New York Center
Tue 04:58:06 PM 41.8164 -77.6758 110° East 543 625 33,300 -1,000 Descending New York Center
Tue 04:59:06 PM 41.7669 -77.4844 109° East 543 625 33,000 -200 Descending New York Center
Tue 05:00:06 PM 41.7172 -77.2931 109° East 543 625 32,900 -1,000 Descending New York Center
Tue 05:01:06 PM 41.6647 -77.1075 111° Southeast 543 625 31,000 -1,900 Descending New York Center
Tue 05:02:06 PM 41.6164 -76.9197 109° East 538 619 29,100 -1,950 Descending New York Center
Tue 05:03:06 PM 41.5653 -76.7347 110° East 538 619 27,100 -2,100 Descending New York Center
Tue 05:04:06 PM 41.5142 -76.5503 110° East 534 615 24,900 -1,500 Descending New York Center
Tue 05:05:06 PM 41.4750 -76.4111 111° Southeast 517 595 24,100 -450 Descending New York Center
Tue 05:06:06 PM 41.4233 -76.2242 110° East 503 579 24,000 -450 Descending New York Center
Tue 05:07:06 PM 41.3728 -76.0486 111° Southeast 498 573 23,200 -1,400 Descending New York Center
Tue 05:08:06 PM 41.3281 -75.8822 110° East 498 573 21,200 -2,000 Descending New York Center
Tue 05:09:06 PM 41.2786 -75.7208 112° Southeast 485 558 19,200 -2,050 Descending New York Center
Tue 05:10:06 PM 41.2292 -75.5600 112° Southeast 472 543 17,100 -2,600 Descending New York Center
Tue 05:11:06 PM 41.1753 -75.3936 113° Southeast 449 517 14,000 -2,800 Descending New York Center
Tue 05:12:06 PM 41.1283 -75.2583 115° Southeast 416 479 11,500 -2,350 Descending New York Center
Tue 05:13:06 PM 41.0911 -75.1428 113° Southeast 368 423 9,300 -2,050 Descending New York Center
Tue 05:14:06 PM 41.0589 -75.0528 115° Southeast 312 359 7,400 -1,650 Descending New York Center
Tue 05:15:06 PM 41.0211 -74.9458 115° Southeast 290 334 6,000 -1,150 Descending New York Center
Tue 05:16:06 PM 41.0019 -74.8431 104° East 290 334 5,100 -950 Descending New York Center
Tue 05:17:06 PM 40.9842 -74.7456 104° East 280 322 4,100 -700 Descending New York Center
Tue 05:18:06 PM 40.9642 -74.6647 108° East 274 315 3,700 -550 Descending New York Center
Tue 05:19:06 PM 40.9364 -74.5589 109° East 274 315 3,000 -350 Descending New York Center
Tue 05:20:06 PM 40.9158 -74.4781 109° East 269 310 3,000 -400 Level New York Center
Tue 05:21:06 PM 40.8808 -74.3967 120° Southeast 245 282 2,200 -850 Descending New York Center
Tue 05:22:06 PM 40.8464 -74.3728 152° Southeast 151 174 1,300 -500 Descending New York Center
Tue 05:23:06 PM 40.8033 -74.3486 157° South 151 174 1,200 2,350 Descending New York Center
Tue 05:24:06 PM 40.7622 -74.3272 158° South 151 174 6,000 2,400 Climbing New York Center
Tue 05:25:06 PM 40.7214 -74.3033 156° South 151 174 6,000  Level New York Center
Tue 05:26:06 PM 40.6803 -74.2819 158° South 151 174 6,000  Level New York Center
Tue 05:27:06 PM 40.6722 -74.2761 151° Southeast 151 174 6,000  Level New York Center
Tue 05:28:06 PM 40.6722 -74.2761 339° North 151 174 6,000  Level New York Center

Login

Don't have an account? Register now (free) for customized features, flight alerts, and more!